createdAt,value
2023-01-02T00:01:05.349Z,12.23
2023-01-02T00:03:32.364Z,16.23
2023-01-02T00:06:01.616Z,16.40
2023-01-02T00:08:28.126Z,15.77
2023-01-02T00:10:54.667Z,14.77
2023-01-02T00:13:21.244Z,15.83
2023-01-02T00:15:47.880Z,16.47
2023-01-02T00:18:14.411Z,18.17
2023-01-02T00:20:40.981Z,18.57
2023-01-02T00:23:07.578Z,16.33
2023-01-02T00:25:34.993Z,22.27
2023-01-02T00:28:01.673Z,40.10
2023-01-02T00:30:32.296Z,33.60
2023-01-02T00:33:02.447Z,26.73
2023-01-02T00:35:28.954Z,23.87
2023-01-02T00:37:55.633Z,25.80
2023-01-02T00:40:22.219Z,25.93
2023-01-02T00:42:48.908Z,28.17
2023-01-02T00:45:15.482Z,24.37
2023-01-02T00:47:42.054Z,30.73
2023-01-02T00:50:08.666Z,24.57
2023-01-02T00:52:35.235Z,26.97
2023-01-02T00:55:01.789Z,29.60
2023-01-02T00:57:28.355Z,24.77
2023-01-02T00:59:54.886Z,27.57
2023-01-02T01:02:21.545Z,31.23
2023-01-02T01:04:48.160Z,27.00
2023-01-02T01:07:15.138Z,25.17
2023-01-02T01:09:41.893Z,23.90
2023-01-02T01:12:08.470Z,23.67
2023-01-02T01:14:35.058Z,30.27
2023-01-02T01:17:01.643Z,29.43
2023-01-02T01:19:31.756Z,28.97
2023-01-02T01:21:58.287Z,27.17
2023-01-02T01:24:24.938Z,27.20
2023-01-02T01:26:51.433Z,26.33
2023-01-02T01:29:18.182Z,24.37
2023-01-02T01:31:44.743Z,24.90
2023-01-02T01:34:11.898Z,20.40
2023-01-02T01:36:38.423Z,25.27
2023-01-02T01:39:04.931Z,27.33
2023-01-02T01:41:31.512Z,25.63
2023-01-02T01:43:58.555Z,27.20
2023-01-02T01:46:32.209Z,26.13
2023-01-02T01:49:00.210Z,25.30
2023-01-02T01:51:26.986Z,23.63
2023-01-02T01:53:54.387Z,23.83
2023-01-02T01:56:20.989Z,26.70
2023-01-02T01:58:47.657Z,25.80
2023-01-02T02:01:14.742Z,27.07
2023-01-02T02:03:41.643Z,23.80
2023-01-02T02:06:08.210Z,24.83
2023-01-02T02:09:04.420Z,27.63
2023-01-02T02:11:30.958Z,21.97
2023-01-02T02:13:58.676Z,24.30
2023-01-02T02:16:48.594Z,20.77
2023-01-02T02:19:15.099Z,23.00
2023-01-02T02:22:00.593Z,23.77
2023-01-02T02:24:30.122Z,22.83
2023-01-02T02:27:01.440Z,17.47
2023-01-02T02:29:27.896Z,18.37
2023-01-02T02:31:54.432Z,20.50
2023-01-02T02:34:22.837Z,22.87
2023-01-02T02:37:02.051Z,19.53
2023-01-02T02:39:34.598Z,24.63
2023-01-02T02:42:18.567Z,23.60
2023-01-02T02:44:54.442Z,20.23
2023-01-02T02:47:22.599Z,21.60
2023-01-02T02:49:50.639Z,20.90
2023-01-02T02:52:21.337Z,20.57
2023-01-02T02:54:50.984Z,22.57
2023-01-02T02:57:17.515Z,18.80
2023-01-02T02:59:44.030Z,24.63
2023-01-02T03:02:13.963Z,21.80
2023-01-02T03:04:40.649Z,18.20
2023-01-02T03:07:22.501Z,22.47
2023-01-02T03:10:07.406Z,23.43
2023-01-02T03:12:36.909Z,20.73
2023-01-02T03:15:09.560Z,32.37
2023-01-02T03:17:45.443Z,36.60
2023-01-02T03:20:13.160Z,33.67
2023-01-02T03:22:40.873Z,28.73
2023-01-02T03:25:07.719Z,29.50
2023-01-02T03:27:34.989Z,29.03
2023-01-02T03:30:02.682Z,25.63
2023-01-02T03:32:30.007Z,29.97
2023-01-02T03:34:56.555Z,30.97
2023-01-02T03:37:26.992Z,29.33
2023-01-02T03:39:54.695Z,35.57
2023-01-02T03:42:28.363Z,26.87
2023-01-02T03:45:01.076Z,23.87
2023-01-02T03:47:36.682Z,28.90
2023-01-02T03:50:05.513Z,28.87
2023-01-02T03:52:32.147Z,28.60
2023-01-02T03:54:58.711Z,30.30
2023-01-02T03:57:25.205Z,33.30
2023-01-02T04:00:10.953Z,30.03
2023-01-02T04:02:39.150Z,29.50
2023-01-02T04:05:16.032Z,29.33
2023-01-02T04:07:42.650Z,30.07
2023-01-02T04:10:09.195Z,29.33
2023-01-02T04:12:36.247Z,31.03
2023-01-02T04:15:03.946Z,31.07
2023-01-02T04:17:31.056Z,30.87
2023-01-02T04:19:59.307Z,31.47
2023-01-02T04:22:27.480Z,29.30
2023-01-02T04:24:54.950Z,29.47
2023-01-02T04:27:28.823Z,28.93
2023-01-02T04:29:55.670Z,30.13
2023-01-02T04:32:54.736Z,31.70
2023-01-02T04:35:21.677Z,34.07
2023-01-02T04:37:48.243Z,31.00
2023-01-02T04:40:36.746Z,33.40
2023-01-02T04:43:04.877Z,33.87
2023-01-02T04:45:31.381Z,33.73
2023-01-02T04:47:57.921Z,34.20
2023-01-02T04:50:24.418Z,32.63
2023-01-02T04:52:50.942Z,35.73
2023-01-02T04:55:17.468Z,29.07
2023-01-02T04:57:44.055Z,32.70
2023-01-02T05:00:10.898Z,30.83
2023-01-02T05:02:37.832Z,29.53
2023-01-02T05:05:04.700Z,34.73
2023-01-02T05:07:32.729Z,28.73
2023-01-02T05:09:59.734Z,25.60
2023-01-02T05:12:26.233Z,28.80
2023-01-02T05:14:52.698Z,26.70
2023-01-02T05:17:19.216Z,24.03
2023-01-02T05:19:45.719Z,25.37
2023-01-02T05:22:30.931Z,30.27
2023-01-02T05:24:57.416Z,30.80
2023-01-02T05:27:23.997Z,33.00
2023-01-02T05:29:50.490Z,32.07
2023-01-02T05:32:17.028Z,33.27
2023-01-02T05:34:43.539Z,30.33
2023-01-02T05:37:10.153Z,26.57
2023-01-02T05:39:36.691Z,29.77
2023-01-02T05:42:03.296Z,34.00
2023-01-02T05:44:30.043Z,44.30
2023-01-02T05:46:56.615Z,37.37
2023-01-02T05:49:23.316Z,46.70
2023-01-02T05:51:49.852Z,41.70
2023-01-02T05:54:16.410Z,44.87
2023-01-02T05:56:42.944Z,62.23
2023-01-02T05:59:09.521Z,55.20
2023-01-02T06:01:36.641Z,54.00
2023-01-02T06:04:03.329Z,54.33
2023-01-02T06:06:31.005Z,50.17
2023-01-02T06:08:58.568Z,55.97
2023-01-02T06:11:25.086Z,55.37
2023-01-02T06:13:51.597Z,50.93
2023-01-02T06:16:18.207Z,46.83
2023-01-02T06:18:44.815Z,50.23
2023-01-02T06:21:12.076Z,40.97
2023-01-02T06:23:38.656Z,41.47
2023-01-02T06:26:05.997Z,41.93
2023-01-02T06:28:32.585Z,40.30
2023-01-02T06:31:00.003Z,39.80
2023-01-02T06:33:26.579Z,48.23
2023-01-02T06:36:06.267Z,41.43
2023-01-02T06:38:32.841Z,38.77
2023-01-02T06:41:00.058Z,39.83
2023-01-02T06:43:26.841Z,36.97
2023-01-02T06:45:53.573Z,37.70
2023-01-02T06:48:20.095Z,41.97
2023-01-02T06:50:46.683Z,43.77
2023-01-02T06:53:13.336Z,42.33
2023-01-02T06:55:39.892Z,43.63
2023-01-02T06:58:10.198Z,40.80
2023-01-02T07:00:38.947Z,43.07
2023-01-02T07:03:05.493Z,40.37
2023-01-02T07:05:32.021Z,35.70
2023-01-02T07:07:58.539Z,34.77
2023-01-02T07:10:25.101Z,38.90
2023-01-02T07:12:51.640Z,36.70
2023-01-02T07:15:18.330Z,39.13
2023-01-02T07:17:44.838Z,40.97
2023-01-02T07:20:11.658Z,35.97
2023-01-02T07:22:38.140Z,34.80
2023-01-02T07:25:04.952Z,40.07
2023-01-02T07:27:31.691Z,41.17
2023-01-02T07:29:58.240Z,36.47
2023-01-02T07:32:27.491Z,38.67
2023-01-02T07:34:54.376Z,33.20
2023-01-02T07:37:20.918Z,36.67
2023-01-02T07:39:47.425Z,39.40
2023-01-02T07:42:14.013Z,40.90
2023-01-02T07:44:40.560Z,40.37
2023-01-02T07:47:07.082Z,42.07
2023-01-02T07:49:33.683Z,40.13
2023-01-02T07:52:00.260Z,37.70
2023-01-02T07:54:26.792Z,37.20
2023-01-02T07:56:53.392Z,36.27
2023-01-02T07:59:19.924Z,37.53
2023-01-02T08:01:46.644Z,36.73
2023-01-02T08:04:13.341Z,41.80
2023-01-02T08:06:40.794Z,37.97
2023-01-02T08:09:07.492Z,41.73
2023-01-02T08:11:34.004Z,42.07
2023-01-02T08:14:00.584Z,51.87
2023-01-02T08:16:27.134Z,54.97
2023-01-02T08:18:55.779Z,59.37
2023-01-02T08:21:23.328Z,50.00
2023-01-02T08:23:49.902Z,54.40
2023-01-02T08:26:16.589Z,53.17
2023-01-02T08:28:43.110Z,58.10
2023-01-02T08:31:10.599Z,50.00
2023-01-02T08:33:37.156Z,61.77
2023-01-02T08:36:03.859Z,61.03
2023-01-02T08:38:30.502Z,63.40
2023-01-02T08:41:00.074Z,63.03
2023-01-02T08:43:26.955Z,69.30
2023-01-02T08:45:54.432Z,72.63
2023-01-02T08:48:21.910Z,91.87
2023-01-02T08:50:49.474Z,81.00
2023-01-02T08:53:16.019Z,79.13
2023-01-02T08:55:42.637Z,88.57
2023-01-02T08:58:09.173Z,91.00
2023-01-02T09:00:35.788Z,78.17
2023-01-02T09:03:02.586Z,80.57
2023-01-02T09:05:31.139Z,72.47
2023-01-02T09:07:58.099Z,75.93
2023-01-02T09:10:24.795Z,70.57
2023-01-02T09:12:51.397Z,71.47
2023-01-02T09:15:18.056Z,70.30
2023-01-02T09:17:44.563Z,72.67
2023-01-02T09:20:11.165Z,69.37
2023-01-02T09:22:37.808Z,71.47
2023-01-02T09:25:04.629Z,67.67
2023-01-02T09:27:31.280Z,73.83
2023-01-02T09:29:57.831Z,71.20
2023-01-02T09:32:24.399Z,67.50
2023-01-02T09:34:51.079Z,58.90
2023-01-02T09:37:17.815Z,51.90
2023-01-02T09:39:44.366Z,61.43
2023-01-02T09:42:13.399Z,48.50
2023-01-02T09:44:39.884Z,51.20
2023-01-02T09:47:06.465Z,50.67
2023-01-02T09:49:34.912Z,48.83
2023-01-02T09:52:01.509Z,40.70
2023-01-02T09:54:28.880Z,46.13
2023-01-02T09:57:00.288Z,42.20
2023-01-02T09:59:33.268Z,43.10
2023-01-02T10:01:59.770Z,46.33
2023-01-02T10:04:46.033Z,42.50
2023-01-02T10:07:13.755Z,47.87
2023-01-02T10:09:45.450Z,45.77
2023-01-02T10:12:13.709Z,41.23
2023-01-02T10:14:55.637Z,42.53
2023-01-02T10:17:22.170Z,46.70
2023-01-02T10:19:54.077Z,48.70
2023-01-02T10:22:21.256Z,41.67
2023-01-02T10:24:50.858Z,45.90
2023-01-02T10:27:19.675Z,48.80
2023-01-02T10:29:48.905Z,42.00
2023-01-02T10:32:18.564Z,43.53
2023-01-02T10:34:54.840Z,46.07
2023-01-02T10:37:21.690Z,42.63
2023-01-02T10:39:48.757Z,48.03
2023-01-02T10:42:15.504Z,44.63
2023-01-02T10:44:42.164Z,48.53
2023-01-02T10:47:12.801Z,47.17
2023-01-02T10:49:39.362Z,44.93
2023-01-02T10:52:06.824Z,49.40
2023-01-02T10:54:51.070Z,52.63
2023-01-02T10:57:27.208Z,52.13
2023-01-02T10:59:58.395Z,51.07
2023-01-02T11:02:26.613Z,59.43
2023-01-02T11:04:53.207Z,49.23
2023-01-02T11:07:26.173Z,49.07
2023-01-02T11:09:56.120Z,59.37
2023-01-02T11:12:27.097Z,52.67
2023-01-02T11:14:58.434Z,49.73
2023-01-02T11:17:24.940Z,48.70
2023-01-02T11:19:52.265Z,48.40
2023-01-02T11:22:19.382Z,45.30
2023-01-02T11:24:59.848Z,46.83
2023-01-02T11:27:56.996Z,51.90
2023-01-02T11:30:27.710Z,43.03
2023-01-02T11:33:01.327Z,49.10
2023-01-02T11:35:29.520Z,49.50
2023-01-02T11:37:56.083Z,49.83
2023-01-02T11:40:26.372Z,47.03
2023-01-02T11:43:11.729Z,41.83
2023-01-02T11:45:38.348Z,43.77
2023-01-02T11:48:05.531Z,40.73
2023-01-02T11:50:34.154Z,42.33
2023-01-02T11:53:00.695Z,41.13
2023-01-02T11:55:27.229Z,37.00
2023-01-02T11:57:54.998Z,37.67
2023-01-02T12:00:21.694Z,33.33
2023-01-02T12:02:51.982Z,30.57
2023-01-02T12:05:37.570Z,28.33
2023-01-02T12:08:06.284Z,22.17
2023-01-02T12:10:38.880Z,12.57
2023-01-02T12:13:18.677Z,12.93
2023-01-02T12:15:51.253Z,7.07
2023-01-02T12:18:30.461Z,8.85
2023-01-02T12:21:00.227Z,10.30
2023-01-02T12:23:36.859Z,9.05
2023-01-02T12:26:09.985Z,7.25
2023-01-02T12:28:55.575Z,6.15
2023-01-02T12:31:31.280Z,7.82
2023-01-02T12:34:16.390Z,7.07
2023-01-02T12:36:45.904Z,4.50
2023-01-02T12:39:31.288Z,7.57
2023-01-02T12:42:01.009Z,5.25
2023-01-02T12:44:37.617Z,6.03
2023-01-02T12:47:04.085Z,6.35
2023-01-02T12:50:09.161Z,6.32
2023-01-02T12:52:38.656Z,6.05
2023-01-02T12:55:23.406Z,3.28
2023-01-02T12:58:19.325Z,5.70
2023-01-02T13:01:21.211Z,3.97
2023-01-02T13:03:50.297Z,7.75
2023-01-02T13:06:43.341Z,8.90
2023-01-02T13:09:22.329Z,6.50
2023-01-02T13:11:56.012Z,4.25
2023-01-02T13:14:23.513Z,7.07
2023-01-02T13:16:58.705Z,5.15
2023-01-02T13:19:32.509Z,5.85
2023-01-02T13:21:59.788Z,7.20
2023-01-02T13:24:26.318Z,4.57
2023-01-02T13:26:53.390Z,5.32
2023-01-02T13:29:21.407Z,4.72
2023-01-02T13:31:49.119Z,6.00
2023-01-02T13:34:22.444Z,6.05
2023-01-02T13:36:49.574Z,7.10
2023-01-02T13:39:20.638Z,6.60
2023-01-02T13:42:09.696Z,5.43
2023-01-02T13:44:39.107Z,5.50
2023-01-02T13:47:19.273Z,6.20
2023-01-02T13:50:11.436Z,4.75
2023-01-02T13:52:38.347Z,6.72
2023-01-02T13:55:11.074Z,5.05
2023-01-02T13:57:37.641Z,5.93
2023-01-02T14:00:05.758Z,6.30
2023-01-02T14:02:32.436Z,7.90
2023-01-02T14:04:59.031Z,9.65
2023-01-02T14:07:25.573Z,6.60
2023-01-02T14:10:03.278Z,5.35
2023-01-02T14:12:29.859Z,5.85
2023-01-02T14:14:56.359Z,6.07
2023-01-02T14:17:32.484Z,7.03
2023-01-02T14:20:17.282Z,7.90
2023-01-02T14:22:54.086Z,6.68
2023-01-02T14:25:20.649Z,8.18
2023-01-02T14:27:51.061Z,7.60
2023-01-02T14:30:21.490Z,7.90
2023-01-02T14:32:48.360Z,7.72
2023-01-02T14:35:14.861Z,8.40
2023-01-02T14:37:42.584Z,9.38
2023-01-02T14:40:10.051Z,9.02
2023-01-02T14:42:55.385Z,6.85
2023-01-02T14:45:23.932Z,6.60
2023-01-02T14:47:54.828Z,6.97
2023-01-02T14:50:22.610Z,7.72
2023-01-02T14:52:50.710Z,6.82
2023-01-02T14:55:21.900Z,7.18
2023-01-02T14:57:49.280Z,6.88
2023-01-02T15:00:17.721Z,9.95
2023-01-02T15:02:45.162Z,6.55
2023-01-02T15:05:22.221Z,6.82
2023-01-02T15:07:52.399Z,8.60
2023-01-02T15:10:22.747Z,7.55
2023-01-02T15:13:04.535Z,6.53
2023-01-02T15:15:31.809Z,8.82
2023-01-02T15:18:02.719Z,14.88
2023-01-02T15:20:30.156Z,11.55
2023-01-02T15:22:56.635Z,12.10
2023-01-02T15:25:33.558Z,10.55
2023-01-02T15:28:00.125Z,11.10
2023-01-02T15:30:28.067Z,14.43
2023-01-02T15:32:54.684Z,12.27
2023-01-02T15:35:22.219Z,13.20
2023-01-02T15:37:49.105Z,13.27
2023-01-02T15:40:24.945Z,12.45
2023-01-02T15:43:11.181Z,10.23
2023-01-02T15:45:39.656Z,11.32
2023-01-02T15:48:06.539Z,11.43
2023-01-02T15:50:33.111Z,13.07
2023-01-02T15:53:01.557Z,12.27
2023-01-02T15:55:40.515Z,14.98
2023-01-02T15:58:16.173Z,15.07
2023-01-02T16:00:43.024Z,15.20
2023-01-02T16:03:10.019Z,16.08
2023-01-02T16:06:07.151Z,13.18
2023-01-02T16:08:37.884Z,12.68
2023-01-02T16:11:05.327Z,15.38
2023-01-02T16:13:50.942Z,15.82
2023-01-02T16:16:18.344Z,13.93
2023-01-02T16:18:45.839Z,12.75
2023-01-02T16:21:12.620Z,12.80
2023-01-02T16:23:39.169Z,12.13
2023-01-02T16:26:06.663Z,13.45
2023-01-02T16:28:35.778Z,14.90
2023-01-02T16:31:09.748Z,14.75
2023-01-02T16:33:36.389Z,11.93
2023-01-02T16:36:15.178Z,15.20
2023-01-02T16:38:45.683Z,15.73
2023-01-02T16:41:25.936Z,15.10
2023-01-02T16:43:52.430Z,15.02
2023-01-02T16:46:18.930Z,15.02
2023-01-02T16:48:45.599Z,17.70
2023-01-02T16:51:12.745Z,16.13
2023-01-02T16:53:39.248Z,18.23
2023-01-02T16:56:05.979Z,18.58
2023-01-02T16:58:32.558Z,20.25
2023-01-02T17:00:59.171Z,20.20
2023-01-02T17:03:26.520Z,21.42
2023-01-02T17:06:02.206Z,22.75
2023-01-02T17:08:30.277Z,20.45
2023-01-02T17:10:58.801Z,16.90
2023-01-02T17:13:25.642Z,20.88
2023-01-02T17:15:52.148Z,19.77
2023-01-02T17:18:18.720Z,18.77
2023-01-02T17:20:45.220Z,19.60
2023-01-02T17:23:11.755Z,22.65
2023-01-02T17:25:40.558Z,18.50
2023-01-02T17:28:07.171Z,20.13
2023-01-02T17:30:33.715Z,18.40
2023-01-02T17:33:04.240Z,20.93
2023-01-02T17:35:31.138Z,20.70
2023-01-02T17:37:57.649Z,19.45
2023-01-02T17:40:24.206Z,19.77
2023-01-02T17:42:50.852Z,18.10
2023-01-02T17:45:17.596Z,18.57
2023-01-02T17:48:05.535Z,18.60
2023-01-02T17:50:31.602Z,19.10
2023-01-02T17:52:58.175Z,18.77
2023-01-02T17:55:24.722Z,19.80
2023-01-02T17:57:51.290Z,17.97
2023-01-02T18:00:18.513Z,17.60
2023-01-02T18:02:45.257Z,20.57
2023-01-02T18:05:11.854Z,17.73
2023-01-02T18:07:38.431Z,19.20
2023-01-02T18:10:08.829Z,18.65
2023-01-02T18:12:37.975Z,17.15
2023-01-02T18:15:14.064Z,19.90
2023-01-02T18:17:40.595Z,16.85
2023-01-02T18:20:17.305Z,20.23
2023-01-02T18:22:48.867Z,20.97
2023-01-02T18:25:20.509Z,18.63
2023-01-02T18:27:47.526Z,19.53
2023-01-02T18:30:21.187Z,19.10
2023-01-02T18:32:47.831Z,21.57
2023-01-02T18:35:55.417Z,19.40
2023-01-02T18:38:14.420Z,20.10
2023-01-02T18:40:41.133Z,23.90
2023-01-02T18:43:26.656Z,22.37
2023-01-02T18:45:54.728Z,21.57
2023-01-02T18:48:21.711Z,18.60
2023-01-02T18:50:55.197Z,17.13
2023-01-02T18:53:23.954Z,20.07
2023-01-02T18:55:50.868Z,20.90
2023-01-02T18:58:17.408Z,18.83
2023-01-02T19:00:44.028Z,20.37
2023-01-02T19:03:11.867Z,20.70
2023-01-02T19:05:40.103Z,20.40
2023-01-02T19:08:08.045Z,18.17
2023-01-02T19:10:37.296Z,19.67
2023-01-02T19:13:08.077Z,24.83
2023-01-02T19:15:38.118Z,25.87
2023-01-02T19:18:13.771Z,23.23
2023-01-02T19:20:43.838Z,18.37
2023-01-02T19:23:16.581Z,18.97
2023-01-02T19:25:43.104Z,19.83
2023-01-02T19:28:39.335Z,18.90
2023-01-02T19:31:09.910Z,21.27
2023-01-02T19:33:38.441Z,21.47
2023-01-02T19:36:05.278Z,18.73
2023-01-02T19:38:32.000Z,17.17
2023-01-02T19:41:01.841Z,17.23
2023-01-02T19:43:28.350Z,15.73
2023-01-02T19:45:55.255Z,18.80
2023-01-02T19:48:21.788Z,15.37
2023-01-02T19:50:48.490Z,17.23
2023-01-02T19:53:15.034Z,17.47
2023-01-02T19:55:41.561Z,17.77
2023-01-02T19:58:08.416Z,20.90
2023-01-02T20:00:34.945Z,28.70
2023-01-02T20:03:01.736Z,23.23
2023-01-02T20:05:28.910Z,19.37
2023-01-02T20:07:56.832Z,22.70
2023-01-02T20:10:23.464Z,21.47
2023-01-02T20:12:50.060Z,21.27
2023-01-02T20:15:17.664Z,17.73
2023-01-02T20:17:44.384Z,23.47
2023-01-02T20:20:12.174Z,18.33
2023-01-02T20:22:38.723Z,16.00
2023-01-02T20:25:05.505Z,19.50
2023-01-02T20:27:32.018Z,20.83
2023-01-02T20:29:58.672Z,19.17
2023-01-02T20:32:25.264Z,19.63
2023-01-02T20:34:51.849Z,22.37
2023-01-02T20:37:21.436Z,20.53
2023-01-02T20:39:51.621Z,23.23
2023-01-02T20:42:18.285Z,21.43
2023-01-02T20:44:44.872Z,25.33
2023-01-02T20:47:12.163Z,22.47
2023-01-02T20:49:39.255Z,22.97
2023-01-02T20:52:05.986Z,21.33
2023-01-02T20:54:32.569Z,20.77
2023-01-02T20:56:59.084Z,18.67
2023-01-02T20:59:25.671Z,20.97
2023-01-02T21:01:52.284Z,20.87
2023-01-02T21:04:22.746Z,19.53
2023-01-02T21:06:56.049Z,18.17
2023-01-02T21:09:22.706Z,20.27
2023-01-02T21:11:49.371Z,21.73
2023-01-02T21:14:15.933Z,21.27
2023-01-02T21:16:42.582Z,21.77
2023-01-02T21:19:09.175Z,19.63
2023-01-02T21:21:35.721Z,20.20
2023-01-02T21:24:02.244Z,21.73
2023-01-02T21:26:28.820Z,18.57
2023-01-02T21:28:55.437Z,22.27
2023-01-02T21:31:22.143Z,20.10
2023-01-02T21:33:48.813Z,20.03
2023-01-02T21:36:15.915Z,22.17
2023-01-02T21:38:42.674Z,20.07
2023-01-02T21:41:27.777Z,21.90
2023-01-02T21:43:54.400Z,20.70
2023-01-02T21:46:21.014Z,19.90
2023-01-02T21:48:47.728Z,17.93
2023-01-02T21:51:15.541Z,17.20
2023-01-02T21:53:42.032Z,15.93
2023-01-02T21:56:08.587Z,20.07
2023-01-02T21:58:35.140Z,15.07
2023-01-02T22:01:01.802Z,17.63
2023-01-02T22:03:28.508Z,17.60
2023-01-02T22:05:55.025Z,17.20
2023-01-02T22:08:21.563Z,19.17
2023-01-02T22:10:49.013Z,18.87
2023-01-02T22:13:15.884Z,18.57
2023-01-02T22:15:42.423Z,17.33
2023-01-02T22:18:09.043Z,20.57
2023-01-02T22:20:35.804Z,21.97
2023-01-02T22:23:02.314Z,20.37
2023-01-02T22:25:28.857Z,21.07
2023-01-02T22:27:55.359Z,22.17
2023-01-02T22:30:29.271Z,21.67
2023-01-02T22:32:59.809Z,20.43
2023-01-02T22:35:26.395Z,21.43
2023-01-02T22:37:52.917Z,19.50
2023-01-02T22:40:20.383Z,17.83
2023-01-02T22:43:01.594Z,17.07
2023-01-02T22:45:29.336Z,18.43
2023-01-02T22:47:59.537Z,16.70
2023-01-02T22:50:29.698Z,20.63
2023-01-02T22:52:56.305Z,15.60
2023-01-02T22:55:23.714Z,18.60
2023-01-02T22:57:51.842Z,13.90
2023-01-02T23:00:19.753Z,15.67
2023-01-02T23:02:46.563Z,16.87
2023-01-02T23:05:16.976Z,16.20
2023-01-02T23:07:43.747Z,17.53
2023-01-02T23:10:10.303Z,16.57
2023-01-02T23:12:36.881Z,17.20
2023-01-02T23:15:03.445Z,17.67
2023-01-02T23:17:48.604Z,17.20
2023-01-02T23:20:15.211Z,17.80
2023-01-02T23:22:41.703Z,17.47
2023-01-02T23:25:08.457Z,17.43
2023-01-02T23:27:35.160Z,16.87
2023-01-02T23:30:01.823Z,17.97
2023-01-02T23:32:28.342Z,18.57
2023-01-02T23:34:54.835Z,15.00
2023-01-02T23:37:21.379Z,16.60
2023-01-02T23:39:47.923Z,17.50
2023-01-02T23:42:14.407Z,15.70
2023-01-02T23:44:41.741Z,18.20
2023-01-02T23:47:12.400Z,19.27
2023-01-02T23:49:41.104Z,16.77
2023-01-02T23:52:07.655Z,20.70
2023-01-02T23:54:34.220Z,20.30
2023-01-02T23:57:00.807Z,21.67
2023-01-02T23:59:27.510Z,23.07
